Webb Lake, Wisconsin
Current Conditions -  °F | °C
As of 3:35 AM on Thursday 23 Oct 2014 (Local Time) from KRZN Reporting Station
Drizzle Drizzle  
Wind Chill: 53°   Ceiling: 2100
Heat Index: 53°   Visibility: 10mi
Dew Point: 40°   Wind: 9mph
Humidity: 62%   Direction: 170°S
Pressure: 29.99"   Gusts: NA
Location:  46.1107°N, 92.219°W
Report Text: KRZN 230835Z AUTO 17008KT 10SM -DZ OVC021 12/05 A2999 RMK AO2 T01170047
Loading
Personal Weather Stations






























Interactive Weather Map
Tropical Storm Tracking
New forecast layout! Learn more

10-Day Weather Forecast

Advertisements
Track Severe Weather on mobile